sensor_id;sensor_type;location;lat;lon;timestamp;pressure;altitude;pressure_sealevel;temperature;humidity
12077;BME280;12420;42.676;23.262;2023-11-19T00:01:33;94540.63;;;3.17;100.00
12077;BME280;12420;42.676;23.262;2023-11-19T00:04:00;94587.84;;;3.38;100.00
12077;BME280;12420;42.676;23.262;2023-11-19T00:06:27;94543.66;;;3.19;100.00
12077;BME280;12420;42.676;23.262;2023-11-19T00:08:54;94545.56;;;3.13;100.00
12077;BME280;12420;42.676;23.262;2023-11-19T00:11:21;94544.44;;;3.25;100.00
12077;BME280;12420;42.676;23.262;2023-11-19T00:13:48;94543.75;;;3.30;100.00
12077;BME280;12420;42.676;23.262;2023-11-19T00:16:16;94548.75;;;3.32;100.00
12077;BME280;12420;42.676;23.262;2023-11-19T00:18:43;94559.91;;;3.08;100.00
12077;BME280;12420;42.676;23.262;2023-11-19T00:21:09;94557.66;;;3.26;100.00
12077;BME280;12420;42.676;23.262;2023-11-19T00:23:36;94575.38;;;3.31;100.00
12077;BME280;12420;42.676;23.262;2023-11-19T00:26:04;94530.63;;;3.34;100.00
12077;BME280;12420;42.676;23.262;2023-11-19T00:28:31;94555.13;;;3.23;100.00
12077;BME280;12420;42.676;23.262;2023-11-19T00:30:58;94548.03;;;3.11;100.00
12077;BME280;12420;42.676;23.262;2023-11-19T00:33:26;94504.03;;;2.88;100.00
12077;BME280;12420;42.676;23.262;2023-11-19T00:35:53;94544.47;;;3.04;100.00
12077;BME280;12420;42.676;23.262;2023-11-19T00:38:21;94528.97;;;2.96;100.00
12077;BME280;12420;42.676;23.262;2023-11-19T00:40:48;94575.78;;;3.24;100.00
12077;BME280;12420;42.676;23.262;2023-11-19T00:43:14;94564.50;;;3.16;100.00
12077;BME280;12420;42.676;23.262;2023-11-19T00:45:41;94574.41;;;3.14;100.00
12077;BME280;12420;42.676;23.262;2023-11-19T00:48:08;94561.44;;;3.09;100.00
12077;BME280;12420;42.676;23.262;2023-11-19T00:50:37;94562.13;;;2.83;100.00
12077;BME280;12420;42.676;23.262;2023-11-19T00:53:07;94540.94;;;2.98;100.00
12077;BME280;12420;42.676;23.262;2023-11-19T00:55:34;94566.63;;;3.07;100.00
12077;BME280;12420;42.676;23.262;2023-11-19T00:58:01;94576.88;;;3.12;100.00
12077;BME280;12420;42.676;23.262;2023-11-19T01:00:29;94561.78;;;3.16;100.00
12077;BME280;12420;42.676;23.262;2023-11-19T01:02:57;94557.72;;;3.12;100.00
12077;BME280;12420;42.676;23.262;2023-11-19T01:05:25;94508.41;;;2.80;100.00
12077;BME280;12420;42.676;23.262;2023-11-19T01:07:55;94532.22;;;3.00;100.00
12077;BME280;12420;42.676;23.262;2023-11-19T01:10:21;94518.56;;;3.00;100.00
12077;BME280;12420;42.676;23.262;2023-11-19T01:12:49;94541.00;;;3.04;100.00
12077;BME280;12420;42.676;23.262;2023-11-19T01:15:16;94564.00;;;3.18;100.00
12077;BME280;12420;42.676;23.262;2023-11-19T01:17:44;94567.06;;;3.25;100.00
12077;BME280;12420;42.676;23.262;2023-11-19T01:20:11;94555.75;;;3.12;100.00
12077;BME280;12420;42.676;23.262;2023-11-19T01:22:39;94559.84;;;3.22;100.00
12077;BME280;12420;42.676;23.262;2023-11-19T01:25:08;94553.22;;;3.29;100.00
12077;BME280;12420;42.676;23.262;2023-11-19T01:27:35;94565.13;;;3.26;100.00
12077;BME280;12420;42.676;23.262;2023-11-19T01:30:02;94518.84;;;3.02;100.00
12077;BME280;12420;42.676;23.262;2023-11-19T01:32:29;94564.94;;;3.35;100.00
12077;BME280;12420;42.676;23.262;2023-11-19T01:34:56;94573.31;;;3.26;100.00
12077;BME280;12420;42.676;23.262;2023-11-19T01:37:23;94569.91;;;3.31;100.00
12077;BME280;12420;42.676;23.262;2023-11-19T01:39:50;94537.78;;;2.85;100.00
12077;BME280;12420;42.676;23.262;2023-11-19T01:42:18;94490.56;;;2.64;100.00
12077;BME280;12420;42.676;23.262;2023-11-19T01:44:55;94581.44;;;3.20;100.00
12077;BME280;12420;42.676;23.262;2023-11-19T01:47:25;94564.44;;;2.90;100.00
12077;BME280;12420;42.676;23.262;2023-11-19T01:49:51;94593.97;;;3.07;100.00
12077;BME280;12420;42.676;23.262;2023-11-19T01:52:19;94585.13;;;2.97;100.00
12077;BME280;12420;42.676;23.262;2023-11-19T01:54:47;94578.66;;;2.94;100.00
12077;BME280;12420;42.676;23.262;2023-11-19T01:57:14;94590.13;;;2.78;100.00
12077;BME280;12420;42.676;23.262;2023-11-19T01:59:42;94594.88;;;2.98;100.00
12077;BME280;12420;42.676;23.262;2023-11-19T02:02:10;94578.69;;;2.79;100.00
12077;BME280;12420;42.676;23.262;2023-11-19T02:04:38;94604.22;;;3.12;100.00
12077;BME280;12420;42.676;23.262;2023-11-19T02:07:06;94610.84;;;3.05;100.00
12077;BME280;12420;42.676;23.262;2023-11-19T02:09:34;94613.66;;;3.31;100.00
12077;BME280;12420;42.676;23.262;2023-11-19T02:12:01;94593.69;;;3.25;100.00
12077;BME280;12420;42.676;23.262;2023-11-19T02:14:28;94578.09;;;3.31;100.00
12077;BME280;12420;42.676;23.262;2023-11-19T02:16:57;94587.72;;;3.47;100.00
12077;BME280;12420;42.676;23.262;2023-11-19T02:19:24;94582.59;;;3.34;100.00
12077;BME280;12420;42.676;23.262;2023-11-19T02:21:51;94550.16;;;3.01;100.00
12077;BME280;12420;42.676;23.262;2023-11-19T02:24:20;94590.41;;;3.41;100.00
12077;BME280;12420;42.676;23.262;2023-11-19T02:26:58;94565.63;;;3.30;100.00
12077;BME280;12420;42.676;23.262;2023-11-19T02:29:28;94589.63;;;3.41;100.00
12077;BME280;12420;42.676;23.262;2023-11-19T02:31:55;94575.91;;;3.35;100.00
12077;BME280;12420;42.676;23.262;2023-11-19T02:34:22;94527.19;;;2.93;100.00
12077;BME280;12420;42.676;23.262;2023-11-19T02:36:49;94563.47;;;3.14;100.00
12077;BME280;12420;42.676;23.262;2023-11-19T02:39:16;94565.19;;;2.91;100.00
12077;BME280;12420;42.676;23.262;2023-11-19T02:41:47;94520.50;;;2.73;100.00
12077;BME280;12420;42.676;23.262;2023-11-19T02:44:16;94570.66;;;3.11;100.00
12077;BME280;12420;42.676;23.262;2023-11-19T02:46:44;94568.28;;;2.98;100.00
12077;BME280;12420;42.676;23.262;2023-11-19T02:49:15;94569.91;;;2.90;100.00
12077;BME280;12420;42.676;23.262;2023-11-19T02:51:41;94565.81;;;2.80;100.00
12077;BME280;12420;42.676;23.262;2023-11-19T02:54:09;94571.81;;;2.84;100.00
12077;BME280;12420;42.676;23.262;2023-11-19T02:56:36;94603.25;;;2.94;100.00
12077;BME280;12420;42.676;23.262;2023-11-19T02:59:04;94563.47;;;2.73;100.00
12077;BME280;12420;42.676;23.262;2023-11-19T03:01:40;94512.41;;;2.44;100.00
12077;BME280;12420;42.676;23.262;2023-11-19T03:04:10;94449.81;;;2.05;100.00
12077;BME280;12420;42.676;23.262;2023-11-19T03:06:42;94575.09;;;3.09;100.00
12077;BME280;12420;42.676;23.262;2023-11-19T03:09:09;94577.16;;;3.14;100.00
12077;BME280;12420;42.676;23.262;2023-11-19T03:11:36;94567.19;;;2.90;100.00
12077;BME280;12420;42.676;23.262;2023-11-19T03:14:02;94590.75;;;3.08;100.00
12077;BME280;12420;42.676;23.262;2023-11-19T03:16:29;94594.97;;;3.30;100.00
12077;BME280;12420;42.676;23.262;2023-11-19T03:18:57;94611.81;;;3.22;100.00
12077;BME280;12420;42.676;23.262;2023-11-19T03:21:29;94590.88;;;3.19;100.00
12077;BME280;12420;42.676;23.262;2023-11-19T03:23:56;94581.25;;;3.03;100.00
12077;BME280;12420;42.676;23.262;2023-11-19T03:26:26;94577.28;;;3.04;100.00
12077;BME280;12420;42.676;23.262;2023-11-19T03:28:53;94623.03;;;3.24;100.00
12077;BME280;12420;42.676;23.262;2023-11-19T03:31:22;94547.28;;;2.90;100.00
12077;BME280;12420;42.676;23.262;2023-11-19T03:33:50;94570.38;;;3.09;100.00
12077;BME280;12420;42.676;23.262;2023-11-19T03:36:17;94511.66;;;2.64;100.00
12077;BME280;12420;42.676;23.262;2023-11-19T03:38:45;94582.91;;;2.95;100.00
12077;BME280;12420;42.676;23.262;2023-11-19T03:41:12;94611.28;;;3.18;100.00
12077;BME280;12420;42.676;23.262;2023-11-19T03:43:39;94564.09;;;3.03;100.00
12077;BME280;12420;42.676;23.262;2023-11-19T03:46:16;94620.97;;;3.40;100.00
12077;BME280;12420;42.676;23.262;2023-11-19T03:48:43;94604.22;;;3.12;100.00
12077;BME280;12420;42.676;23.262;2023-11-19T03:51:11;94618.22;;;2.78;100.00
12077;BME280;12420;42.676;23.262;2023-11-19T03:53:41;94551.75;;;2.16;100.00
12077;BME280;12420;42.676;23.262;2023-11-19T03:56:09;94611.25;;;2.77;100.00
12077;BME280;12420;42.676;23.262;2023-11-19T03:58:36;94574.72;;;2.10;100.00
12077;BME280;12420;42.676;23.262;2023-11-19T04:01:04;94626.97;;;2.82;100.00
12077;BME280;12420;42.676;23.262;2023-11-19T04:03:30;94620.13;;;2.72;100.00
12077;BME280;12420;42.676;23.262;2023-11-19T04:05:57;94577.16;;;2.23;100.00
12077;BME280;12420;42.676;23.262;2023-11-19T04:08:24;94582.22;;;2.45;100.00
12077;BME280;12420;42.676;23.262;2023-11-19T04:10:52;94608.16;;;2.70;100.00
12077;BME280;12420;42.676;23.262;2023-11-19T04:13:20;94695.59;;;3.05;100.00
12077;BME280;12420;42.676;23.262;2023-11-19T04:15:49;94660.34;;;3.07;100.00
12077;BME280;12420;42.676;23.262;2023-11-19T04:18:16;94649.69;;;3.09;100.00
12077;BME280;12420;42.676;23.262;2023-11-19T04:20:43;94645.25;;;3.12;100.00
12077;BME280;12420;42.676;23.262;2023-11-19T04:23:09;94628.34;;;2.93;100.00
12077;BME280;12420;42.676;23.262;2023-11-19T04:25:36;94657.56;;;3.42;100.00
12077;BME280;12420;42.676;23.262;2023-11-19T04:28:03;94639.22;;;3.28;100.00
12077;BME280;12420;42.676;23.262;2023-11-19T04:30:32;94599.50;;;2.92;100.00
12077;BME280;12420;42.676;23.262;2023-11-19T04:32:58;94617.09;;;3.06;100.00
12077;BME280;12420;42.676;23.262;2023-11-19T04:35:25;94666.84;;;3.10;100.00
12077;BME280;12420;42.676;23.262;2023-11-19T04:37:52;94665.81;;;3.28;100.00
12077;BME280;12420;42.676;23.262;2023-11-19T04:40:22;94622.56;;;3.06;100.00
12077;BME280;12420;42.676;23.262;2023-11-19T04:42:49;94575.22;;;2.79;100.00
12077;BME280;12420;42.676;23.262;2023-11-19T04:45:16;94638.19;;;3.05;100.00
12077;BME280;12420;42.676;23.262;2023-11-19T04:47:44;94650.59;;;3.21;100.00
12077;BME280;12420;42.676;23.262;2023-11-19T04:50:11;94636.69;;;3.04;100.00
12077;BME280;12420;42.676;23.262;2023-11-19T04:52:38;94620.72;;;2.82;100.00
12077;BME280;12420;42.676;23.262;2023-11-19T04:55:07;94599.22;;;2.90;100.00
12077;BME280;12420;42.676;23.262;2023-11-19T04:57:36;94656.19;;;3.32;100.00
12077;BME280;12420;42.676;23.262;2023-11-19T05:00:04;94637.31;;;3.34;100.00
12077;BME280;12420;42.676;23.262;2023-11-19T05:02:33;94657.16;;;3.50;100.00
12077;BME280;12420;42.676;23.262;2023-11-19T05:05:01;94660.41;;;3.13;100.00
12077;BME280;12420;42.676;23.262;2023-11-19T05:07:29;94619.03;;;2.85;100.00
12077;BME280;12420;42.676;23.262;2023-11-19T05:09:56;94677.16;;;3.20;100.00
12077;BME280;12420;42.676;23.262;2023-11-19T05:12:23;94692.44;;;3.27;100.00
12077;BME280;12420;42.676;23.262;2023-11-19T05:14:50;94691.53;;;3.36;100.00
12077;BME280;12420;42.676;23.262;2023-11-19T05:17:17;94649.22;;;3.11;100.00
12077;BME280;12420;42.676;23.262;2023-11-19T05:19:44;94694.03;;;3.54;100.00
12077;BME280;12420;42.676;23.262;2023-11-19T05:22:13;94613.44;;;3.14;100.00
12077;BME280;12420;42.676;23.262;2023-11-19T05:24:39;94687.19;;;3.64;100.00
12077;BME280;12420;42.676;23.262;2023-11-19T05:27:07;94694.84;;;3.40;100.00
12077;BME280;12420;42.676;23.262;2023-11-19T05:29:36;94665.34;;;3.09;100.00
12077;BME280;12420;42.676;23.262;2023-11-19T05:32:04;94685.59;;;3.37;100.00
12077;BME280;12420;42.676;23.262;2023-11-19T05:34:32;94678.19;;;3.43;100.00
12077;BME280;12420;42.676;23.262;2023-11-19T05:36:59;94668.50;;;3.22;100.00
12077;BME280;12420;42.676;23.262;2023-11-19T05:39:29;94683.81;;;3.14;100.00
12077;BME280;12420;42.676;23.262;2023-11-19T05:41:56;94683.59;;;3.17;100.00
12077;BME280;12420;42.676;23.262;2023-11-19T05:44:23;94686.28;;;2.97;100.00
12077;BME280;12420;42.676;23.262;2023-11-19T05:46:50;94726.09;;;2.98;100.00
12077;BME280;12420;42.676;23.262;2023-11-19T05:49:17;94695.66;;;2.90;100.00
12077;BME280;12420;42.676;23.262;2023-11-19T05:51:44;94665.63;;;2.75;100.00
12077;BME280;12420;42.676;23.262;2023-11-19T05:54:11;94685.41;;;2.85;100.00
12077;BME280;12420;42.676;23.262;2023-11-19T05:56:40;94642.84;;;2.49;100.00
12077;BME280;12420;42.676;23.262;2023-11-19T05:59:07;94606.91;;;2.21;100.00
12077;BME280;12420;42.676;23.262;2023-11-19T06:01:40;94712.06;;;2.90;100.00
12077;BME280;12420;42.676;23.262;2023-11-19T06:04:08;94701.97;;;2.96;100.00
12077;BME280;12420;42.676;23.262;2023-11-19T06:06:35;94725.28;;;3.12;100.00
12077;BME280;12420;42.676;23.262;2023-11-19T06:09:02;94729.91;;;3.21;100.00
12077;BME280;12420;42.676;23.262;2023-11-19T06:11:32;94728.53;;;3.11;100.00
12077;BME280;12420;42.676;23.262;2023-11-19T06:14:00;94709.06;;;3.23;100.00
12077;BME280;12420;42.676;23.262;2023-11-19T06:16:27;94677.59;;;2.78;100.00
12077;BME280;12420;42.676;23.262;2023-11-19T06:18:54;94712.53;;;3.24;100.00
12077;BME280;12420;42.676;23.262;2023-11-19T06:21:21;94730.38;;;3.19;100.00
12077;BME280;12420;42.676;23.262;2023-11-19T06:23:56;94677.63;;;2.98;100.00
12077;BME280;12420;42.676;23.262;2023-11-19T06:26:24;94700.22;;;3.14;100.00
12077;BME280;12420;42.676;23.262;2023-11-19T06:28:52;94724.19;;;3.04;100.00
12077;BME280;12420;42.676;23.262;2023-11-19T06:31:21;94688.09;;;2.50;100.00
12077;BME280;12420;42.676;23.262;2023-11-19T06:33:47;94716.41;;;2.82;100.00
12077;BME280;12420;42.676;23.262;2023-11-19T06:36:14;94675.72;;;2.54;100.00
12077;BME280;12420;42.676;23.262;2023-11-19T06:38:43;94732.25;;;2.78;100.00
12077;BME280;12420;42.676;23.262;2023-11-19T06:41:15;94732.53;;;2.50;100.00
12077;BME280;12420;42.676;23.262;2023-11-19T06:43:42;94780.78;;;2.53;100.00
12077;BME280;12420;42.676;23.262;2023-11-19T06:46:16;94694.50;;;2.32;100.00
12077;BME280;12420;42.676;23.262;2023-11-19T06:48:44;94737.91;;;2.45;100.00
12077;BME280;12420;42.676;23.262;2023-11-19T06:51:11;94712.94;;;2.22;100.00
12077;BME280;12420;42.676;23.262;2023-11-19T06:53:38;94731.97;;;2.46;100.00
12077;BME280;12420;42.676;23.262;2023-11-19T06:56:06;94666.06;;;2.09;100.00
12077;BME280;12420;42.676;23.262;2023-11-19T06:58:43;94665.28;;;2.08;100.00
12077;BME280;12420;42.676;23.262;2023-11-19T07:01:10;94740.16;;;2.46;100.00
12077;BME280;12420;42.676;23.262;2023-11-19T07:03:38;94753.06;;;2.46;100.00
12077;BME280;12420;42.676;23.262;2023-11-19T07:06:07;94739.69;;;2.48;100.00
12077;BME280;12420;42.676;23.262;2023-11-19T07:08:34;94728.28;;;2.64;100.00
12077;BME280;12420;42.676;23.262;2023-11-19T07:11:02;94719.84;;;2.47;100.00
12077;BME280;12420;42.676;23.262;2023-11-19T07:13:29;94761.94;;;2.55;100.00
12077;BME280;12420;42.676;23.262;2023-11-19T07:15:57;94738.00;;;2.50;100.00
12077;BME280;12420;42.676;23.262;2023-11-19T07:18:24;94725.38;;;2.53;100.00
12077;BME280;12420;42.676;23.262;2023-11-19T07:20:52;94759.50;;;2.57;100.00
12077;BME280;12420;42.676;23.262;2023-11-19T07:23:22;94721.25;;;2.43;100.00
12077;BME280;12420;42.676;23.262;2023-11-19T07:25:49;94743.19;;;2.48;100.00
12077;BME280;12420;42.676;23.262;2023-11-19T07:28:23;94710.88;;;2.32;100.00
12077;BME280;12420;42.676;23.262;2023-11-19T07:30:50;94669.22;;;1.78;100.00
12077;BME280;12420;42.676;23.262;2023-11-19T07:33:18;94792.94;;;2.52;100.00
12077;BME280;12420;42.676;23.262;2023-11-19T07:35:45;94759.66;;;2.39;100.00
12077;BME280;12420;42.676;23.262;2023-11-19T07:38:12;94736.84;;;2.12;100.00
12077;BME280;12420;42.676;23.262;2023-11-19T07:40:40;94757.88;;;2.51;100.00
12077;BME280;12420;42.676;23.262;2023-11-19T07:43:06;94705.56;;;2.13;100.00
12077;BME280;12420;42.676;23.262;2023-11-19T07:45:33;94775.53;;;2.65;100.00
12077;BME280;12420;42.676;23.262;2023-11-19T07:48:01;94736.47;;;2.49;100.00
12077;BME280;12420;42.676;23.262;2023-11-19T07:50:28;94749.13;;;2.61;100.00
12077;BME280;12420;42.676;23.262;2023-11-19T07:52:57;94759.13;;;2.50;100.00
12077;BME280;12420;42.676;23.262;2023-11-19T07:55:23;94780.13;;;2.58;100.00
12077;BME280;12420;42.676;23.262;2023-11-19T07:57:51;94767.31;;;2.65;100.00
12077;BME280;12420;42.676;23.262;2023-11-19T08:00:18;94735.72;;;2.04;100.00
12077;BME280;12420;42.676;23.262;2023-11-19T08:02:46;94773.44;;;2.45;100.00
12077;BME280;12420;42.676;23.262;2023-11-19T08:05:14;94785.84;;;2.46;100.00
12077;BME280;12420;42.676;23.262;2023-11-19T08:07:41;94769.19;;;2.44;100.00
12077;BME280;12420;42.676;23.262;2023-11-19T08:10:08;94807.06;;;2.66;100.00
12077;BME280;12420;42.676;23.262;2023-11-19T08:12:36;94803.28;;;2.48;100.00
12077;BME280;12420;42.676;23.262;2023-11-19T08:21:01;94788.00;;;2.27;100.00
12077;BME280;12420;42.676;23.262;2023-11-19T08:23:30;94788.50;;;2.40;100.00
12077;BME280;12420;42.676;23.262;2023-11-19T08:25:57;94808.38;;;2.41;100.00
12077;BME280;12420;42.676;23.262;2023-11-19T08:28:24;94796.59;;;2.49;100.00
12077;BME280;12420;42.676;23.262;2023-11-19T08:30:51;94750.78;;;2.14;100.00
12077;BME280;12420;42.676;23.262;2023-11-19T08:33:18;94779.81;;;2.42;100.00
12077;BME280;12420;42.676;23.262;2023-11-19T08:35:48;94792.28;;;2.57;100.00
12077;BME280;12420;42.676;23.262;2023-11-19T08:38:17;94758.56;;;1.92;100.00
12077;BME280;12420;42.676;23.262;2023-11-19T08:40:44;94771.13;;;2.28;100.00
12077;BME280;12420;42.676;23.262;2023-11-19T08:43:10;94839.00;;;2.59;100.00
12077;BME280;12420;42.676;23.262;2023-11-19T08:45:37;94807.72;;;2.60;100.00
12077;BME280;12420;42.676;23.262;2023-11-19T08:48:04;94796.81;;;2.60;100.00
12077;BME280;12420;42.676;23.262;2023-11-19T08:50:31;94693.69;;;1.87;100.00
12077;BME280;12420;42.676;23.262;2023-11-19T08:52:58;94796.44;;;2.82;100.00
12077;BME280;12420;42.676;23.262;2023-11-19T08:55:27;94719.53;;;2.30;100.00
12077;BME280;12420;42.676;23.262;2023-11-19T08:57:53;94818.94;;;2.92;100.00
12077;BME280;12420;42.676;23.262;2023-11-19T09:00:20;94811.50;;;2.78;100.00
12077;BME280;12420;42.676;23.262;2023-11-19T09:02:47;94825.19;;;2.78;100.00
12077;BME280;12420;42.676;23.262;2023-11-19T09:05:14;94788.31;;;2.88;100.00
12077;BME280;12420;42.676;23.262;2023-11-19T09:07:41;94787.38;;;2.76;100.00
12077;BME280;12420;42.676;23.262;2023-11-19T09:10:08;94794.81;;;2.91;100.00
12077;BME280;12420;42.676;23.262;2023-11-19T09:12:38;94763.06;;;2.93;100.00
12077;BME280;12420;42.676;23.262;2023-11-19T09:15:05;94752.69;;;2.82;100.00
12077;BME280;12420;42.676;23.262;2023-11-19T09:17:36;94789.22;;;3.15;100.00
12077;BME280;12420;42.676;23.262;2023-11-19T09:20:03;94776.31;;;3.15;100.00
12077;BME280;12420;42.676;23.262;2023-11-19T09:22:30;94787.28;;;3.36;100.00
12077;BME280;12420;42.676;23.262;2023-11-19T09:24:56;94805.09;;;3.11;100.00
12077;BME280;12420;42.676;23.262;2023-11-19T09:27:25;94817.63;;;3.02;100.00
12077;BME280;12420;42.676;23.262;2023-11-19T09:29:54;94817.34;;;3.00;100.00
12077;BME280;12420;42.676;23.262;2023-11-19T09:32:23;94754.50;;;2.56;100.00
12077;BME280;12420;42.676;23.262;2023-11-19T09:34:50;94777.75;;;2.81;100.00
12077;BME280;12420;42.676;23.262;2023-11-19T09:37:17;94770.31;;;2.67;100.00
12077;BME280;12420;42.676;23.262;2023-11-19T09:39:44;94770.97;;;2.91;100.00
12077;BME280;12420;42.676;23.262;2023-11-19T09:42:12;94756.25;;;3.03;100.00
12077;BME280;12420;42.676;23.262;2023-11-19T09:44:39;94756.03;;;3.22;100.00
12077;BME280;12420;42.676;23.262;2023-11-19T09:47:10;94756.34;;;3.44;100.00
12077;BME280;12420;42.676;23.262;2023-11-19T09:49:37;94728.66;;;3.22;100.00
12077;BME280;12420;42.676;23.262;2023-11-19T09:52:05;94722.09;;;3.14;100.00
12077;BME280;12420;42.676;23.262;2023-11-19T09:54:32;94721.28;;;3.28;100.00
12077;BME280;12420;42.676;23.262;2023-11-19T09:57:02;94728.47;;;3.46;100.00
12077;BME280;12420;42.676;23.262;2023-11-19T09:59:29;94726.53;;;3.67;100.00
12077;BME280;12420;42.676;23.262;2023-11-19T10:01:56;94724.75;;;3.84;100.00
12077;BME280;12420;42.676;23.262;2023-11-19T10:04:26;94733.56;;;3.74;100.00
12077;BME280;12420;42.676;23.262;2023-11-19T10:06:55;94739.47;;;3.87;100.00
12077;BME280;12420;42.676;23.262;2023-11-19T10:09:22;94733.06;;;3.96;100.00
12077;BME280;12420;42.676;23.262;2023-11-19T10:11:49;94687.53;;;3.72;100.00
12077;BME280;12420;42.676;23.262;2023-11-19T10:14:16;94728.50;;;3.87;100.00
12077;BME280;12420;42.676;23.262;2023-11-19T10:16:46;94717.13;;;3.74;100.00
12077;BME280;12420;42.676;23.262;2023-11-19T10:19:18;94736.78;;;3.72;100.00
12077;BME280;12420;42.676;23.262;2023-11-19T10:21:47;94730.47;;;3.86;100.00
12077;BME280;12420;42.676;23.262;2023-11-19T10:24:14;94745.34;;;4.26;100.00
12077;BME280;12420;42.676;23.262;2023-11-19T10:26:41;94713.31;;;4.12;100.00
12077;BME280;12420;42.676;23.262;2023-11-19T10:29:08;94748.56;;;4.25;100.00
12077;BME280;12420;42.676;23.262;2023-11-19T10:31:35;94706.22;;;4.20;100.00
12077;BME280;12420;42.676;23.262;2023-11-19T10:34:02;94705.44;;;4.46;100.00
12077;BME280;12420;42.676;23.262;2023-11-19T10:36:38;94698.50;;;4.24;100.00
12077;BME280;12420;42.676;23.262;2023-11-19T10:39:08;94680.63;;;4.03;100.00
12077;BME280;12420;42.676;23.262;2023-11-19T10:41:35;94666.31;;;3.67;100.00
12077;BME280;12420;42.676;23.262;2023-11-19T10:44:02;94760.06;;;4.03;100.00
12077;BME280;12420;42.676;23.262;2023-11-19T10:46:38;94741.56;;;3.98;100.00
12077;BME280;12420;42.676;23.262;2023-11-19T10:49:05;94732.41;;;3.80;100.00
12077;BME280;12420;42.676;23.262;2023-11-19T10:51:33;94752.03;;;3.79;100.00
12077;BME280;12420;42.676;23.262;2023-11-19T10:54:02;94717.22;;;3.59;100.00
12077;BME280;12420;42.676;23.262;2023-11-19T10:56:33;94711.25;;;3.81;100.00
12077;BME280;12420;42.676;23.262;2023-11-19T10:59:01;94667.00;;;3.41;100.00
12077;BME280;12420;42.676;23.262;2023-11-19T11:01:36;94717.28;;;3.85;100.00
12077;BME280;12420;42.676;23.262;2023-11-19T11:04:07;94705.69;;;3.96;100.00
12077;BME280;12420;42.676;23.262;2023-11-19T11:06:40;94685.97;;;3.91;100.00
12077;BME280;12420;42.676;23.262;2023-11-19T11:09:07;94716.97;;;4.03;100.00
12077;BME280;12420;42.676;23.262;2023-11-19T11:11:39;94700.56;;;4.29;100.00
12077;BME280;12420;42.676;23.262;2023-11-19T11:14:10;94630.53;;;4.23;100.00
12077;BME280;12420;42.676;23.262;2023-11-19T11:16:42;94676.16;;;4.31;100.00
12077;BME280;12420;42.676;23.262;2023-11-19T11:19:09;94624.78;;;3.95;100.00
12077;BME280;12420;42.676;23.262;2023-11-19T11:21:38;94675.25;;;4.14;100.00
12077;BME280;12420;42.676;23.262;2023-11-19T11:24:23;94628.69;;;3.62;100.00
12077;BME280;12420;42.676;23.262;2023-11-19T11:27:16;94680.44;;;3.86;100.00
12077;BME280;12420;42.676;23.262;2023-11-19T11:29:59;94684.34;;;4.00;100.00
12077;BME280;12420;42.676;23.262;2023-11-19T11:32:35;94619.53;;;3.44;100.00
12077;BME280;12420;42.676;23.262;2023-11-19T11:35:18;94584.19;;;3.67;100.00
12077;BME280;12420;42.676;23.262;2023-11-19T11:37:55;94679.22;;;4.39;100.00
12077;BME280;12420;42.676;23.262;2023-11-19T11:40:24;94696.16;;;4.38;100.00
12077;BME280;12420;42.676;23.262;2023-11-19T11:42:53;94633.34;;;4.34;100.00
12077;BME280;12420;42.676;23.262;2023-11-19T11:45:35;94645.97;;;4.57;100.00
12077;BME280;12420;42.676;23.262;2023-11-19T11:48:09;94630.47;;;4.49;100.00
12077;BME280;12420;42.676;23.262;2023-11-19T11:50:48;94648.09;;;4.74;100.00
12077;BME280;12420;42.676;23.262;2023-11-19T11:53:19;94644.41;;;4.83;100.00
12077;BME280;12420;42.676;23.262;2023-11-19T11:55:55;94642.00;;;4.96;100.00
12077;BME280;12420;42.676;23.262;2023-11-19T11:58:45;94641.25;;;4.95;100.00
12077;BME280;12420;42.676;23.262;2023-11-19T12:01:15;94659.03;;;5.11;100.00
12077;BME280;12420;42.676;23.262;2023-11-19T12:03:46;94643.34;;;5.12;100.00
12077;BME280;12420;42.676;23.262;2023-11-19T12:06:12;94664.63;;;5.28;100.00
12077;BME280;12420;42.676;23.262;2023-11-19T12:08:41;94641.09;;;5.10;100.00
12077;BME280;12420;42.676;23.262;2023-11-19T12:11:07;94631.09;;;5.07;100.00
12077;BME280;12420;42.676;23.262;2023-11-19T12:13:56;94615.19;;;5.17;100.00
12077;BME280;12420;42.676;23.262;2023-11-19T12:16:24;94632.88;;;5.16;100.00
12077;BME280;12420;42.676;23.262;2023-11-19T12:18:53;94570.31;;;4.71;100.00
12077;BME280;12420;42.676;23.262;2023-11-19T12:21:30;94615.16;;;5.11;100.00
12077;BME280;12420;42.676;23.262;2023-11-19T12:23:59;94597.09;;;4.93;100.00
12077;BME280;12420;42.676;23.262;2023-11-19T12:26:37;94611.19;;;5.12;100.00
12077;BME280;12420;42.676;23.262;2023-11-19T12:29:05;94644.41;;;5.26;100.00
12077;BME280;12420;42.676;23.262;2023-11-19T12:31:33;94576.22;;;5.02;100.00
12077;BME280;12420;42.676;23.262;2023-11-19T12:34:06;94586.31;;;5.27;100.00
12077;BME280;12420;42.676;23.262;2023-11-19T12:36:38;94584.78;;;5.20;100.00
12077;BME280;12420;42.676;23.262;2023-11-19T12:39:05;94601.63;;;5.56;100.00
12077;BME280;12420;42.676;23.262;2023-11-19T12:41:32;94596.91;;;5.68;100.00
12077;BME280;12420;42.676;23.262;2023-11-19T12:44:16;94604.38;;;5.62;100.00
12077;BME280;12420;42.676;23.262;2023-11-19T12:46:44;94593.38;;;5.51;100.00
12077;BME280;12420;42.676;23.262;2023-11-19T12:49:11;94606.38;;;5.56;100.00
12077;BME280;12420;42.676;23.262;2023-11-19T12:51:39;94601.16;;;5.63;100.00
12077;BME280;12420;42.676;23.262;2023-11-19T12:54:06;94560.13;;;5.32;100.00
12077;BME280;12420;42.676;23.262;2023-11-19T12:56:33;94536.63;;;5.19;100.00
12077;BME280;12420;42.676;23.262;2023-11-19T12:59:10;94595.41;;;5.61;100.00
12077;BME280;12420;42.676;23.262;2023-11-19T13:01:39;94583.19;;;5.74;100.00
12077;BME280;12420;42.676;23.262;2023-11-19T13:04:17;94580.66;;;5.64;100.00